Time,TemperatureF,DewpointF,PressureIn,WindDirection,WindDirectionDegrees,WindSpeedMPH,WindSpeedGustMPH,Humidity,HourlyPrecipIn,Conditions,Clouds,dailyrainin,SoftwareType,DateUTC
2013-05-30 00:11:00,71.3,70.0,30.05,East,82,0.0,1.0,95,0.00,,,0.00,weatherlink.com 1.10,2013-05-30 05:11:00,
2013-05-30 00:27:00,71.3,70.0,30.05,ENE,76,0.0,2.0,96,0.00,,,0.00,weatherlink.com 1.10,2013-05-30 05:27:00,
2013-05-30 00:42:00,71.5,70.0,30.05,ENE,77,0.0,2.0,95,0.00,,,0.00,weatherlink.com 1.10,2013-05-30 05:42:00,
2013-05-30 00:57:00,71.5,70.0,30.05,ENE,77,0.0,1.0,95,0.00,,,0.00,weatherlink.com 1.10,2013-05-30 05:57:00,
2013-05-30 01:12:00,71.4,70.0,30.04,East,81,1.0,1.0,95,0.00,,,0.00,weatherlink.com 1.10,2013-05-30 06:12:00,
2013-05-30 01:27:00,71.2,70.0,30.04,ESE,110,0.0,2.0,95,0.00,,,0.00,weatherlink.com 1.10,2013-05-30 06:27:00,
2013-05-30 01:42:00,71.1,70.0,30.04,East,96,0.0,2.0,96,0.00,,,0.00,weatherlink.com 1.10,2013-05-30 06:42:00,
2013-05-30 01:57:00,71.2,70.0,30.04,East,100,2.0,4.0,95,0.00,,,0.00,weatherlink.com 1.10,2013-05-30 06:57:00,
2013-05-30 02:12:00,71.2,70.0,30.04,East,96,0.0,4.0,95,0.00,,,0.00,weatherlink.com 1.10,2013-05-30 07:12:00,
2013-05-30 02:27:00,70.8,69.0,30.04,East,91,0.0,2.0,95,0.00,,,0.00,weatherlink.com 1.10,2013-05-30 07:27:00,
2013-05-30 02:42:00,70.8,69.0,30.04,SE,134,2.0,2.0,95,0.00,,,0.00,weatherlink.com 1.10,2013-05-30 07:42:00,
2013-05-30 02:57:00,70.9,70.0,30.04,East,98,0.0,2.0,95,0.00,,,0.00,weatherlink.com 1.10,2013-05-30 07:57:00,
2013-05-30 03:12:00,70.8,69.0,30.05,East,79,1.0,3.0,95,0.00,,,0.00,weatherlink.com 1.10,2013-05-30 08:12:00,
2013-05-30 03:27:00,71.0,70.0,30.05,East,83,1.0,3.0,95,0.00,,,0.00,weatherlink.com 1.10,2013-05-30 08:27:00,
2013-05-30 03:42:00,70.8,69.0,30.05,East,94,0.0,2.0,95,0.00,,,0.00,weatherlink.com 1.10,2013-05-30 08:42:00,
2013-05-30 03:57:00,70.4,69.0,30.05,East,81,0.0,2.0,95,0.00,,,0.00,weatherlink.com 1.10,2013-05-30 08:57:00,
2013-05-30 04:12:00,70.3,69.0,30.06,ENE,60,2.0,2.0,96,0.00,,,0.00,weatherlink.com 1.10,2013-05-30 09:12:00,
2013-05-30 04:27:00,70.3,69.0,30.06,ENE,71,2.0,3.0,95,0.00,,,0.00,weatherlink.com 1.10,2013-05-30 09:27:00,
2013-05-30 04:42:00,70.3,69.0,30.06,East,82,3.0,5.0,95,0.00,,,0.00,weatherlink.com 1.10,2013-05-30 09:42:00,
2013-05-30 04:57:00,70.4,69.0,30.07,ENE,70,3.0,5.0,95,0.01,,,0.01,weatherlink.com 1.10,2013-05-30 09:57:00,
2013-05-30 05:12:00,70.4,69.0,30.07,East,85,1.0,7.0,95,0.01,,,0.01,weatherlink.com 1.10,2013-05-30 10:12:00,
2013-05-30 05:28:00,70.3,69.0,30.07,East,79,2.0,4.0,95,0.01,,,0.01,weatherlink.com 1.10,2013-05-30 10:28:00,
2013-05-30 05:42:00,70.4,69.0,30.08,ENE,70,2.0,6.0,95,0.01,,,0.01,weatherlink.com 1.10,2013-05-30 10:42:00,
2013-05-30 05:57:00,70.7,69.0,30.08,ENE,61,2.0,6.0,95,0.00,,,0.01,weatherlink.com 1.10,2013-05-30 10:57:00,
2013-05-30 06:12:00,71.2,70.0,30.08,East,87,3.0,9.0,95,0.00,,,0.01,weatherlink.com 1.10,2013-05-30 11:12:00,
2013-05-30 06:27:00,71.8,70.0,30.09,ESE,120,4.0,8.0,94,0.00,,,0.01,weatherlink.com 1.10,2013-05-30 11:27:00,
2013-05-30 06:42:00,72.0,70.0,30.09,ENE,74,4.0,6.0,94,0.00,,,0.01,weatherlink.com 1.10,2013-05-30 11:42:00,
2013-05-30 06:57:00,72.3,71.0,30.10,ENE,59,3.0,7.0,94,0.00,,,0.01,weatherlink.com 1.10,2013-05-30 11:57:00,
2013-05-30 07:12:00,72.6,71.0,30.10,East,82,2.0,7.0,94,0.00,,,0.01,weatherlink.com 1.10,2013-05-30 12:12:00,
2013-05-30 07:27:00,73.1,71.0,30.11,ENE,73,4.0,7.0,93,0.00,,,0.01,weatherlink.com 1.10,2013-05-30 12:27:00,
2013-05-30 07:42:00,73.7,71.0,30.11,ESE,103,2.0,5.0,92,0.00,,,0.01,weatherlink.com 1.10,2013-05-30 12:42:00,
2013-05-30 07:57:00,74.3,72.0,30.12,ESE,117,8.0,8.0,91,0.00,,,0.01,weatherlink.com 1.10,2013-05-30 12:57:00,
2013-05-30 08:13:00,74.9,72.0,30.12,East,84,2.0,6.0,90,0.00,,,0.01,weatherlink.com 1.10,2013-05-30 13:13:00,
2013-05-30 08:28:00,75.9,72.0,30.12,East,98,3.0,7.0,88,0.00,,,0.01,weatherlink.com 1.10,2013-05-30 13:28:00,
2013-05-30 08:43:00,76.8,72.0,30.12,East,91,6.0,10.0,86,0.00,,,0.01,weatherlink.com 1.10,2013-05-30 13:43:00,
2013-05-30 08:58:00,77.0,72.0,30.12,ESE,108,7.0,11.0,84,0.00,,,0.01,weatherlink.com 1.10,2013-05-30 13:58:00,
2013-05-30 09:13:00,78.3,72.0,30.11,East,94,7.0,11.0,80,0.00,,,0.01,weatherlink.com 1.10,2013-05-30 14:13:00,
2013-05-30 09:28:00,78.8,72.0,30.11,East,83,3.0,11.0,80,0.00,,,0.01,weatherlink.com 1.10,2013-05-30 14:28:00,
2013-05-30 09:43:00,79.1,72.0,30.11,ESE,121,6.0,12.0,79,0.00,,,0.01,weatherlink.com 1.10,2013-05-30 14:43:00,
2013-05-30 09:58:00,79.8,71.0,30.11,NE,46,6.0,13.0,74,0.00,,,0.01,weatherlink.com 1.10,2013-05-30 14:58:00,
2013-05-30 10:13:00,81.3,71.0,30.10,ENE,77,6.0,18.0,71,0.00,,,0.01,weatherlink.com 1.10,2013-05-30 15:13:00,
2013-05-30 10:28:00,81.3,71.0,30.10,East,98,7.0,12.0,70,0.00,,,0.01,weatherlink.com 1.10,2013-05-30 15:28:00,
2013-05-30 10:43:00,82.1,71.0,30.10,NE,46,3.0,11.0,68,0.00,,,0.01,weatherlink.com 1.10,2013-05-30 15:43:00,
2013-05-30 10:58:00,82.9,71.0,30.10,ESE,108,7.0,7.0,68,0.00,,,0.01,weatherlink.com 1.10,2013-05-30 15:58:00,
2013-05-30 11:13:00,82.7,70.0,30.09,ENE,62,3.0,11.0,65,0.00,,,0.01,weatherlink.com 1.10,2013-05-30 16:13:00,
2013-05-30 11:28:00,83.3,70.0,30.09,South,175,4.0,10.0,65,0.00,,,0.01,weatherlink.com 1.10,2013-05-30 16:28:00,
2013-05-30 11:43:00,84.3,70.0,30.09,NE,41,3.0,9.0,62,0.00,,,0.01,weatherlink.com 1.10,2013-05-30 16:43:00,
2013-05-30 11:58:00,84.5,70.0,30.09,ESE,108,6.0,10.0,63,0.00,,,0.01,weatherlink.com 1.10,2013-05-30 16:58:00,
2013-05-30 12:13:00,85.4,69.0,30.09,ESE,105,11.0,16.0,59,0.00,,,0.01,weatherlink.com 1.10,2013-05-30 17:13:00,
2013-05-30 12:28:00,84.8,70.0,30.09,East,81,4.0,9.0,61,0.00,,,0.01,weatherlink.com 1.10,2013-05-30 17:28:00,
2013-05-30 12:43:00,86.9,70.0,30.08,SE,130,2.0,10.0,58,0.00,,,0.01,weatherlink.com 1.10,2013-05-30 17:43:00,
2013-05-30 12:58:00,86.6,69.0,30.07,East,89,7.0,10.0,55,0.00,,,0.01,weatherlink.com 1.10,2013-05-30 17:58:00,
2013-05-30 13:13:00,86.6,69.0,30.07,SE,144,4.0,10.0,56,0.00,,,0.01,weatherlink.com 1.10,2013-05-30 18:13:00,
2013-05-30 13:28:00,86.9,69.0,30.06,ENE,71,5.0,10.0,56,0.00,,,0.01,weatherlink.com 1.10,2013-05-30 18:28:00,
2013-05-30 13:43:00,86.7,68.0,30.06,East,96,8.0,9.0,54,0.00,,,0.01,weatherlink.com 1.10,2013-05-30 18:43:00,
2013-05-30 13:58:00,86.6,69.0,30.05,SE,124,6.0,10.0,55,0.00,,,0.01,weatherlink.com 1.10,2013-05-30 18:58:00,
2013-05-30 14:13:00,87.3,69.0,30.04,ESE,110,4.0,14.0,54,0.00,,,0.01,weatherlink.com 1.10,2013-05-30 19:13:00,
2013-05-30 14:28:00,87.0,68.0,30.04,ESE,110,7.0,12.0,53,0.00,,,0.01,weatherlink.com 1.10,2013-05-30 19:28:00,
2013-05-30 14:43:00,87.7,68.0,30.03,ENE,66,9.0,9.0,52,0.00,,,0.01,weatherlink.com 1.10,2013-05-30 19:43:00,
2013-05-30 14:58:00,87.1,68.0,30.03,East,96,3.0,10.0,53,0.00,,,0.01,weatherlink.com 1.10,2013-05-30 19:58:00,
2013-05-30 15:13:00,86.4,67.0,30.03,East,97,6.0,12.0,53,0.00,,,0.01,weatherlink.com 1.10,2013-05-30 20:13:00,
2013-05-30 15:28:00,86.2,68.0,30.02,ESE,102,3.0,8.0,55,0.00,,,0.01,weatherlink.com 1.10,2013-05-30 20:28:00,
2013-05-30 15:43:00,88.4,68.0,30.02,ENE,76,5.0,12.0,51,0.00,,,0.01,weatherlink.com 1.10,2013-05-30 20:43:00,
2013-05-30 15:58:00,89.1,68.0,30.02,ENE,71,5.0,7.0,49,0.00,,,0.01,weatherlink.com 1.10,2013-05-30 20:58:00,
2013-05-30 16:13:00,88.5,67.0,30.02,ENE,57,3.0,10.0,49,0.00,,,0.01,weatherlink.com 1.10,2013-05-30 21:13:00,
2013-05-30 16:28:00,88.9,67.0,30.02,SE,125,5.0,14.0,49,0.00,,,0.01,weatherlink.com 1.10,2013-05-30 21:28:00,
2013-05-30 16:43:00,88.0,68.0,30.02,East,95,4.0,10.0,51,0.00,,,0.01,weatherlink.com 1.10,2013-05-30 21:43:00,
2013-05-30 16:59:00,87.1,68.0,30.01,ESE,114,6.0,9.0,54,0.00,,,0.01,weatherlink.com 1.10,2013-05-30 21:59:00,
2013-05-30 17:14:00,88.5,68.0,30.01,ENE,58,2.0,9.0,51,0.00,,,0.01,weatherlink.com 1.10,2013-05-30 22:14:00,
2013-05-30 17:29:00,88.5,69.0,30.01,East,85,4.0,8.0,52,0.00,,,0.01,weatherlink.com 1.10,2013-05-30 22:29:00,
2013-05-30 17:44:00,86.6,69.0,30.01,SE,131,3.0,9.0,55,0.00,,,0.01,weatherlink.com 1.10,2013-05-30 22:44:00,
2013-05-30 17:59:00,85.4,70.0,30.01,South,179,3.0,4.0,60,0.00,,,0.01,weatherlink.com 1.10,2013-05-30 22:59:00,
2013-05-30 18:14:00,84.3,70.0,30.01,ENE,59,2.0,5.0,63,0.00,,,0.01,weatherlink.com 1.10,2013-05-30 23:14:00,
2013-05-30 18:29:00,84.8,71.0,30.01,ESE,106,0.0,3.0,63,0.00,,,0.01,weatherlink.com 1.10,2013-05-30 23:29:00,
2013-05-30 18:44:00,85.2,71.0,30.01,West,274,0.0,1.0,63,0.00,,,0.01,weatherlink.com 1.10,2013-05-30 23:44:00,
2013-05-30 18:59:00,84.6,71.0,30.01,West,272,0.0,0.0,64,0.00,,,0.01,weatherlink.com 1.10,2013-05-30 23:59:00,
2013-05-30 19:14:00,83.4,71.0,30.01,West,273,0.0,0.0,66,0.00,,,0.01,weatherlink.com 1.10,2013-05-31 00:14:00,
2013-05-30 19:29:00,81.7,71.0,30.02,West,272,0.0,0.0,70,0.00,,,0.01,weatherlink.com 1.10,2013-05-31 00:29:00,
2013-05-30 19:44:00,79.9,71.0,30.01,West,273,0.0,0.0,73,0.00,,,0.01,weatherlink.com 1.10,2013-05-31 00:44:00,
2013-05-30 19:59:00,78.6,70.0,30.02,West,273,0.0,0.0,76,0.00,,,0.01,weatherlink.com 1.10,2013-05-31 00:59:00,
2013-05-30 20:14:00,77.5,70.0,30.02,West,273,0.0,0.0,78,0.00,,,0.01,weatherlink.com 1.10,2013-05-31 01:14:00,
2013-05-30 20:29:00,77.3,70.0,30.02,SE,124,0.0,1.0,79,0.00,,,0.01,weatherlink.com 1.10,2013-05-31 01:29:00,
2013-05-30 20:44:00,77.3,71.0,30.03,SE,144,0.0,1.0,81,0.00,,,0.01,weatherlink.com 1.10,2013-05-31 01:44:00,
2013-05-30 20:59:00,77.2,71.0,30.03,East,99,0.0,0.0,81,0.00,,,0.01,weatherlink.com 1.10,2013-05-31 01:59:00,
2013-05-30 21:14:00,76.2,71.0,30.04,East,99,0.0,0.0,83,0.00,,,0.01,weatherlink.com 1.10,2013-05-31 02:14:00,
2013-05-30 21:29:00,75.2,71.0,30.04,East,98,0.0,0.0,85,0.00,,,0.01,weatherlink.com 1.10,2013-05-31 02:29:00,
2013-05-30 21:44:00,74.4,70.0,30.04,East,98,0.0,0.0,86,0.00,,,0.01,weatherlink.com 1.10,2013-05-31 02:44:00,
2013-05-30 21:59:00,73.5,70.0,30.05,East,98,0.0,0.0,87,0.00,,,0.01,weatherlink.com 1.10,2013-05-31 02:59:00,
2013-05-30 22:14:00,73.3,70.0,30.05,East,98,0.0,0.0,88,0.00,,,0.01,weatherlink.com 1.10,2013-05-31 03:14:00,
2013-05-30 22:29:00,73.1,69.0,30.06,East,99,0.0,0.0,88,0.00,,,0.01,weatherlink.com 1.10,2013-05-31 03:29:00,
2013-05-30 22:44:00,72.5,69.0,30.06,East,98,0.0,0.0,89,0.00,,,0.01,weatherlink.com 1.10,2013-05-31 03:44:00,
2013-05-30 22:59:00,72.1,69.0,30.07,East,98,0.0,0.0,90,0.00,,,0.01,weatherlink.com 1.10,2013-05-31 03:59:00,
2013-05-30 23:14:00,72.5,69.0,30.07,East,98,0.0,0.0,87,0.00,,,0.01,weatherlink.com 1.10,2013-05-31 04:14:00,
2013-05-30 23:29:00,72.8,68.0,30.07,East,98,0.0,1.0,85,0.00,,,0.01,weatherlink.com 1.10,2013-05-31 04:29:00,
2013-05-30 23:44:00,73.7,68.0,30.08,East,96,0.0,1.0,83,0.00,,,0.01,weatherlink.com 1.10,2013-05-31 04:44:00,
2013-05-30 23:59:00,74.6,68.0,30.07,ESE,105,1.0,3.0,80,0.00,,,0.01,weatherlink.com 1.10,2013-05-31 04:59:00,